sensor_id;sensor_type;location;lat;lon;timestamp;pressure;altitude;pressure_sealevel;temperature;humidity
49949;BME280;35840;45.982;8.890;2023-08-06T00:01:26;97448.63;;;20.64;50.94
49949;BME280;35840;45.982;8.890;2023-08-06T00:03:53;97457.50;;;20.55;50.33
49949;BME280;35840;45.982;8.890;2023-08-06T00:06:19;97452.97;;;19.95;51.68
49949;BME280;35840;45.982;8.890;2023-08-06T00:08:46;97453.84;;;19.88;51.06
49949;BME280;35840;45.982;8.890;2023-08-06T00:11:13;97456.13;;;20.29;50.32
49949;BME280;35840;45.982;8.890;2023-08-06T00:13:40;97454.50;;;20.28;51.06
49949;BME280;35840;45.982;8.890;2023-08-06T00:16:10;97454.25;;;20.38;50.81
49949;BME280;35840;45.982;8.890;2023-08-06T00:18:38;97454.50;;;20.28;50.25
49949;BME280;35840;45.982;8.890;2023-08-06T00:21:05;97455.09;;;20.53;49.54
49949;BME280;35840;45.982;8.890;2023-08-06T00:23:32;97463.97;;;20.44;50.29
49949;BME280;35840;45.982;8.890;2023-08-06T00:25:59;97461.47;;;20.12;50.46
49949;BME280;35840;45.982;8.890;2023-08-06T00:28:26;97452.38;;;20.08;51.12
49949;BME280;35840;45.982;8.890;2023-08-06T00:30:56;97458.41;;;20.09;50.41
49949;BME280;35840;45.982;8.890;2023-08-06T00:33:23;97456.63;;;20.09;50.71
49949;BME280;35840;45.982;8.890;2023-08-06T00:35:51;97451.28;;;20.03;50.81
49949;BME280;35840;45.982;8.890;2023-08-06T00:38:17;97461.78;;;20.18;51.17
49949;BME280;35840;45.982;8.890;2023-08-06T00:40:44;97441.38;;;19.98;53.35
49949;BME280;35840;45.982;8.890;2023-08-06T00:43:11;97449.63;;;20.25;52.41
49949;BME280;35840;45.982;8.890;2023-08-06T00:45:37;97454.22;;;19.85;52.60
49949;BME280;35840;45.982;8.890;2023-08-06T00:48:05;97447.72;;;19.72;53.25
49949;BME280;35840;45.982;8.890;2023-08-06T00:50:33;97443.00;;;19.99;52.05
49949;BME280;35840;45.982;8.890;2023-08-06T00:53:00;97437.31;;;20.19;52.61
49949;BME280;35840;45.982;8.890;2023-08-06T00:55:27;97435.50;;;20.34;52.34
49949;BME280;35840;45.982;8.890;2023-08-06T00:57:55;97440.06;;;20.17;52.25
49949;BME280;35840;45.982;8.890;2023-08-06T01:00:24;97442.78;;;20.24;52.22
49949;BME280;35840;45.982;8.890;2023-08-06T01:02:52;97439.72;;;19.82;54.08
49949;BME280;35840;45.982;8.890;2023-08-06T01:05:21;97433.44;;;19.37;54.05
49949;BME280;35840;45.982;8.890;2023-08-06T01:10:56;97433.03;;;19.80;53.28
49949;BME280;35840;45.982;8.890;2023-08-06T01:15:55;97431.06;;;20.05;52.65
49949;BME280;35840;45.982;8.890;2023-08-06T01:18:28;97423.47;;;19.95;53.03
49949;BME280;35840;45.982;8.890;2023-08-06T01:20:56;97418.00;;;19.82;52.91
49949;BME280;35840;45.982;8.890;2023-08-06T01:23:23;97421.22;;;19.92;52.24
49949;BME280;35840;45.982;8.890;2023-08-06T01:31:01;97424.09;;;19.74;53.85
49949;BME280;35840;45.982;8.890;2023-08-06T01:33:32;97428.38;;;19.67;54.15
49949;BME280;35840;45.982;8.890;2023-08-06T01:36:00;97425.69;;;19.52;55.29
49949;BME280;35840;45.982;8.890;2023-08-06T01:38:27;97428.97;;;19.22;54.33
49949;BME280;35840;45.982;8.890;2023-08-06T01:40:54;97429.91;;;19.30;55.37
49949;BME280;35840;45.982;8.890;2023-08-06T01:43:21;97424.91;;;19.20;53.68
49949;BME280;35840;45.982;8.890;2023-08-06T01:45:48;97424.63;;;19.06;53.45
49949;BME280;35840;45.982;8.890;2023-08-06T01:48:15;97421.78;;;18.93;53.00
49949;BME280;35840;45.982;8.890;2023-08-06T01:50:42;97418.38;;;18.92;53.11
49949;BME280;35840;45.982;8.890;2023-08-06T01:53:08;97411.19;;;18.86;53.90
49949;BME280;35840;45.982;8.890;2023-08-06T01:55:35;97421.50;;;18.71;53.28
49949;BME280;35840;45.982;8.890;2023-08-06T01:58:03;97414.75;;;18.46;53.17
49949;BME280;35840;45.982;8.890;2023-08-06T02:00:29;97410.09;;;18.72;53.31
49949;BME280;35840;45.982;8.890;2023-08-06T02:02:57;97407.91;;;18.28;52.75
49949;BME280;35840;45.982;8.890;2023-08-06T02:05:24;97394.13;;;18.11;53.10
49949;BME280;35840;45.982;8.890;2023-08-06T02:07:51;97398.06;;;17.91;52.83
49949;BME280;35840;45.982;8.890;2023-08-06T02:10:18;97399.97;;;17.72;53.53
49949;BME280;35840;45.982;8.890;2023-08-06T02:12:45;97389.44;;;17.98;53.18
49949;BME280;35840;45.982;8.890;2023-08-06T02:15:12;97389.19;;;18.41;53.07
49949;BME280;35840;45.982;8.890;2023-08-06T02:17:39;97382.16;;;18.58;52.68
49949;BME280;35840;45.982;8.890;2023-08-06T02:20:06;97386.34;;;18.75;52.46
49949;BME280;35840;45.982;8.890;2023-08-06T02:22:33;97391.50;;;18.36;52.78
49949;BME280;35840;45.982;8.890;2023-08-06T02:25:00;97384.56;;;18.59;52.70
49949;BME280;35840;45.982;8.890;2023-08-06T02:27:27;97373.09;;;18.46;54.05
49949;BME280;35840;45.982;8.890;2023-08-06T02:29:54;97376.03;;;18.82;53.22
49949;BME280;35840;45.982;8.890;2023-08-06T02:32:21;97371.81;;;18.41;52.32
49949;BME280;35840;45.982;8.890;2023-08-06T02:34:47;97373.38;;;18.51;51.51
49949;BME280;35840;45.982;8.890;2023-08-06T02:37:14;97366.09;;;18.38;52.57
49949;BME280;35840;45.982;8.890;2023-08-06T02:39:41;97360.75;;;18.31;52.63
49949;BME280;35840;45.982;8.890;2023-08-06T02:42:08;97357.19;;;18.16;53.52
49949;BME280;35840;45.982;8.890;2023-08-06T02:44:35;97355.44;;;18.08;52.81
49949;BME280;35840;45.982;8.890;2023-08-06T02:47:04;97355.16;;;17.95;54.39
49949;BME280;35840;45.982;8.890;2023-08-06T02:49:30;97358.22;;;17.57;54.10
49949;BME280;35840;45.982;8.890;2023-08-06T02:51:57;97359.19;;;17.72;53.22
49949;BME280;35840;45.982;8.890;2023-08-06T02:54:24;97358.22;;;17.57;53.63
49949;BME280;35840;45.982;8.890;2023-08-06T02:56:51;97359.47;;;17.20;54.92
49949;BME280;35840;45.982;8.890;2023-08-06T02:59:28;97344.53;;;17.22;54.61
49949;BME280;35840;45.982;8.890;2023-08-06T03:02:06;97350.91;;;17.61;53.48
49949;BME280;35840;45.982;8.890;2023-08-06T03:05:02;97351.38;;;17.97;53.50
49949;BME280;35840;45.982;8.890;2023-08-06T03:07:34;97359.50;;;17.86;53.30
49949;BME280;35840;45.982;8.890;2023-08-06T03:10:09;97355.28;;;17.52;53.60
49949;BME280;35840;45.982;8.890;2023-08-06T03:12:36;97351.19;;;17.25;54.03
49949;BME280;35840;45.982;8.890;2023-08-06T03:15:05;97355.19;;;16.94;55.23
49949;BME280;35840;45.982;8.890;2023-08-06T03:17:31;97351.03;;;17.34;54.34
49949;BME280;35840;45.982;8.890;2023-08-06T03:19:59;97361.44;;;17.76;53.58
49949;BME280;35840;45.982;8.890;2023-08-06T03:22:27;97353.69;;;17.92;52.81
49949;BME280;35840;45.982;8.890;2023-08-06T03:24:54;97371.19;;;17.82;53.12
49949;BME280;35840;45.982;8.890;2023-08-06T03:27:23;97360.97;;;17.72;52.57
49949;BME280;35840;45.982;8.890;2023-08-06T03:29:51;97356.25;;;17.84;53.68
49949;BME280;35840;45.982;8.890;2023-08-06T03:32:21;97356.22;;;18.17;52.55
49949;BME280;35840;45.982;8.890;2023-08-06T03:34:48;97368.06;;;18.36;52.37
49949;BME280;35840;45.982;8.890;2023-08-06T03:37:15;97362.09;;;17.86;53.76
49949;BME280;35840;45.982;8.890;2023-08-06T03:39:41;97360.03;;;17.98;53.30
49949;BME280;35840;45.982;8.890;2023-08-06T03:42:08;97366.63;;;18.17;52.46
49949;BME280;35840;45.982;8.890;2023-08-06T03:44:35;97368.00;;;17.96;53.75
49949;BME280;35840;45.982;8.890;2023-08-06T03:47:02;97370.34;;;17.32;54.70
49949;BME280;35840;45.982;8.890;2023-08-06T03:49:29;97365.03;;;17.66;53.97
49949;BME280;35840;45.982;8.890;2023-08-06T03:51:55;97367.66;;;17.91;53.67
49949;BME280;35840;45.982;8.890;2023-08-06T03:54:22;97369.72;;;17.87;54.12
49949;BME280;35840;45.982;8.890;2023-08-06T03:56:49;97359.31;;;17.21;57.25
49949;BME280;35840;45.982;8.890;2023-08-06T03:59:16;97363.22;;;17.50;56.74
49949;BME280;35840;45.982;8.890;2023-08-06T04:01:44;97371.19;;;17.82;55.62
49949;BME280;35840;45.982;8.890;2023-08-06T04:04:12;97375.09;;;16.85;57.19
49949;BME280;35840;45.982;8.890;2023-08-06T04:06:39;97370.09;;;16.92;56.92
49949;BME280;35840;45.982;8.890;2023-08-06T04:09:06;97375.75;;;17.47;55.86
49949;BME280;35840;45.982;8.890;2023-08-06T04:11:32;97381.59;;;17.82;54.75
49949;BME280;35840;45.982;8.890;2023-08-06T04:13:59;97383.22;;;17.50;55.63
49949;BME280;35840;45.982;8.890;2023-08-06T04:16:26;97380.94;;;17.71;54.73
49949;BME280;35840;45.982;8.890;2023-08-06T04:18:54;97378.84;;;17.75;54.87
49949;BME280;35840;45.982;8.890;2023-08-06T04:21:22;97391.19;;;17.81;54.84
49949;BME280;35840;45.982;8.890;2023-08-06T04:23:48;97381.09;;;17.62;53.53
49949;BME280;35840;45.982;8.890;2023-08-06T04:26:17;97388.09;;;17.61;54.00
49949;BME280;35840;45.982;8.890;2023-08-06T04:28:44;97386.25;;;17.20;55.19
49949;BME280;35840;45.982;8.890;2023-08-06T04:31:11;97378.44;;;17.20;55.79
49949;BME280;35840;45.982;8.890;2023-08-06T04:33:41;97386.97;;;17.64;54.63
49949;BME280;35840;45.982;8.890;2023-08-06T04:36:11;97386.19;;;17.96;54.16
49949;BME280;35840;45.982;8.890;2023-08-06T04:38:38;97378.59;;;17.11;56.88
49949;BME280;35840;45.982;8.890;2023-08-06T04:41:07;97380.59;;;17.33;56.49
49949;BME280;35840;45.982;8.890;2023-08-06T04:43:34;97377.72;;;17.69;55.85
49949;BME280;35840;45.982;8.890;2023-08-06T04:46:01;97390.28;;;17.15;57.00
49949;BME280;35840;45.982;8.890;2023-08-06T04:48:28;97391.63;;;17.27;56.82
49949;BME280;35840;45.982;8.890;2023-08-06T04:50:54;97383.88;;;17.60;54.72
49949;BME280;35840;45.982;8.890;2023-08-06T04:53:21;97390.03;;;17.59;55.08
49949;BME280;35840;45.982;8.890;2023-08-06T04:55:48;97386.50;;;17.93;54.55
49949;BME280;35840;45.982;8.890;2023-08-06T04:58:15;97380.44;;;17.51;55.16
49949;BME280;35840;45.982;8.890;2023-08-06T05:00:42;97375.28;;;17.68;54.77
49949;BME280;35840;45.982;8.890;2023-08-06T05:03:08;97391.34;;;17.71;54.60
49949;BME280;35840;45.982;8.890;2023-08-06T05:05:35;97391.84;;;17.67;56.28
49949;BME280;35840;45.982;8.890;2023-08-06T05:08:02;97404.69;;;17.77;56.60
49949;BME280;35840;45.982;8.890;2023-08-06T05:10:29;97397.88;;;17.92;55.56
49949;BME280;35840;45.982;8.890;2023-08-06T05:12:55;97388.13;;;18.11;55.17
49949;BME280;35840;45.982;8.890;2023-08-06T05:15:22;97370.56;;;18.04;56.17
49949;BME280;35840;45.982;8.890;2023-08-06T05:17:51;97389.75;;;18.03;57.40
49949;BME280;35840;45.982;8.890;2023-08-06T05:20:20;97384.19;;;17.82;57.17
49949;BME280;35840;45.982;8.890;2023-08-06T05:22:47;97381.44;;;17.67;57.56
49949;BME280;35840;45.982;8.890;2023-08-06T05:25:14;97369.91;;;17.78;57.74
49949;BME280;35840;45.982;8.890;2023-08-06T05:27:41;97383.72;;;18.19;57.04
49949;BME280;35840;45.982;8.890;2023-08-06T05:30:09;97364.53;;;18.12;57.37
49949;BME280;35840;45.982;8.890;2023-08-06T05:32:36;97373.16;;;17.80;58.91
49949;BME280;35840;45.982;8.890;2023-08-06T05:35:03;97368.59;;;17.90;58.64
49949;BME280;35840;45.982;8.890;2023-08-06T05:37:30;97367.94;;;18.13;57.06
49949;BME280;35840;45.982;8.890;2023-08-06T05:39:57;97363.09;;;18.01;59.00
49949;BME280;35840;45.982;8.890;2023-08-06T05:42:23;97372.19;;;18.05;58.40
49949;BME280;35840;45.982;8.890;2023-08-06T05:44:50;97374.44;;;17.59;56.52
49949;BME280;35840;45.982;8.890;2023-08-06T05:47:17;97367.28;;;17.53;56.35
49949;BME280;35840;45.982;8.890;2023-08-06T05:49:43;97388.47;;;18.08;56.52
49949;BME280;35840;45.982;8.890;2023-08-06T05:52:10;97387.72;;;18.38;56.47
49949;BME280;35840;45.982;8.890;2023-08-06T05:54:37;97377.66;;;18.27;56.85
49949;BME280;35840;45.982;8.890;2023-08-06T05:57:04;97377.88;;;18.09;58.03
49949;BME280;35840;45.982;8.890;2023-08-06T05:59:31;97383.88;;;18.34;57.33
49949;BME280;35840;45.982;8.890;2023-08-06T06:01:58;97387.19;;;18.51;55.55
49949;BME280;35840;45.982;8.890;2023-08-06T06:04:25;97392.84;;;17.91;58.15
49949;BME280;35840;45.982;8.890;2023-08-06T06:06:51;97392.66;;;17.84;58.01
49949;BME280;35840;45.982;8.890;2023-08-06T06:09:18;97400.28;;;18.27;56.37
49949;BME280;35840;45.982;8.890;2023-08-06T06:11:45;97397.13;;;18.64;55.37
49949;BME280;35840;45.982;8.890;2023-08-06T06:14:12;97406.13;;;18.93;55.17
49949;BME280;35840;45.982;8.890;2023-08-06T06:16:39;97401.03;;;18.60;54.98
49949;BME280;35840;45.982;8.890;2023-08-06T06:19:05;97395.41;;;18.32;57.10
49949;BME280;35840;45.982;8.890;2023-08-06T06:21:32;97394.78;;;18.78;56.22
49949;BME280;35840;45.982;8.890;2023-08-06T06:23:59;97406.22;;;19.08;55.08
49949;BME280;35840;45.982;8.890;2023-08-06T06:26:26;97396.81;;;19.07;53.96
49949;BME280;35840;45.982;8.890;2023-08-06T06:28:52;97409.88;;;19.30;53.87
49949;BME280;35840;45.982;8.890;2023-08-06T06:31:19;97403.31;;;19.34;53.61
49949;BME280;35840;45.982;8.890;2023-08-06T06:33:46;97400.63;;;19.19;53.33
49949;BME280;35840;45.982;8.890;2023-08-06T06:36:13;97404.28;;;19.33;53.03
49949;BME280;35840;45.982;8.890;2023-08-06T06:38:39;97398.47;;;19.54;52.76
49949;BME280;35840;45.982;8.890;2023-08-06T06:41:06;97398.69;;;19.21;54.89
49949;BME280;35840;45.982;8.890;2023-08-06T06:43:33;97395.06;;;19.54;54.30
49949;BME280;35840;45.982;8.890;2023-08-06T06:46:00;97394.91;;;19.70;52.80
49949;BME280;35840;45.982;8.890;2023-08-06T06:48:28;97388.59;;;19.65;52.91
49949;BME280;35840;45.982;8.890;2023-08-06T06:50:55;97389.50;;;19.57;50.95
49949;BME280;35840;45.982;8.890;2023-08-06T06:53:23;97392.09;;;19.57;51.71
49949;BME280;35840;45.982;8.890;2023-08-06T06:56:03;97399.75;;;19.58;53.07
49949;BME280;35840;45.982;8.890;2023-08-06T06:58:31;97387.78;;;19.49;50.39
49949;BME280;35840;45.982;8.890;2023-08-06T07:00:58;97384.22;;;19.65;50.19
49949;BME280;35840;45.982;8.890;2023-08-06T07:03:25;97368.09;;;19.61;49.29
49949;BME280;35840;45.982;8.890;2023-08-06T07:05:51;97379.81;;;19.89;50.50
49949;BME280;35840;45.982;8.890;2023-08-06T07:08:18;97379.31;;;20.08;49.04
49949;BME280;35840;45.982;8.890;2023-08-06T07:10:45;97374.28;;;20.07;49.92
49949;BME280;35840;45.982;8.890;2023-08-06T07:13:12;97364.22;;;20.19;51.77
49949;BME280;35840;45.982;8.890;2023-08-06T07:15:38;97353.03;;;20.40;52.10
49949;BME280;35840;45.982;8.890;2023-08-06T07:18:05;97355.06;;;20.53;50.71
49949;BME280;35840;45.982;8.890;2023-08-06T07:20:32;97359.00;;;20.63;51.14
49949;BME280;35840;45.982;8.890;2023-08-06T07:23:00;97353.16;;;20.61;51.57
49949;BME280;35840;45.982;8.890;2023-08-06T07:25:27;97360.97;;;20.76;51.55
49949;BME280;35840;45.982;8.890;2023-08-06T07:27:54;97359.06;;;20.85;50.62
49949;BME280;35840;45.982;8.890;2023-08-06T07:30:23;97357.19;;;20.94;49.77
49949;BME280;35840;45.982;8.890;2023-08-06T07:32:50;97350.03;;;21.03;49.29
49949;BME280;35840;45.982;8.890;2023-08-06T07:35:16;97333.31;;;20.97;50.50
49949;BME280;35840;45.982;8.890;2023-08-06T07:37:43;97356.16;;;21.10;49.67
49949;BME280;35840;45.982;8.890;2023-08-06T07:40:11;97356.06;;;21.03;49.87
49949;BME280;35840;45.982;8.890;2023-08-06T07:42:37;97359.00;;;21.15;49.95
49949;BME280;35840;45.982;8.890;2023-08-06T07:45:04;97363.59;;;21.28;50.65
49949;BME280;35840;45.982;8.890;2023-08-06T07:47:31;97367.31;;;21.40;50.96
49949;BME280;35840;45.982;8.890;2023-08-06T07:49:58;97368.56;;;21.44;50.93
49949;BME280;35840;45.982;8.890;2023-08-06T07:52:26;97375.22;;;21.47;47.83
49949;BME280;35840;45.982;8.890;2023-08-06T07:54:52;97363.69;;;21.56;45.84
49949;BME280;35840;45.982;8.890;2023-08-06T07:57:19;97362.28;;;21.60;46.50
49949;BME280;35840;45.982;8.890;2023-08-06T07:59:46;97366.34;;;21.63;45.70
49949;BME280;35840;45.982;8.890;2023-08-06T08:02:12;97360.91;;;21.64;45.34
49949;BME280;35840;45.982;8.890;2023-08-06T08:04:39;97368.56;;;21.66;44.25
49949;BME280;35840;45.982;8.890;2023-08-06T08:07:06;97379.88;;;21.66;44.74
49949;BME280;35840;45.982;8.890;2023-08-06T08:09:34;97375.13;;;21.77;44.20
49949;BME280;35840;45.982;8.890;2023-08-06T08:12:01;97368.44;;;21.74;43.89
49949;BME280;35840;45.982;8.890;2023-08-06T08:14:29;97367.25;;;21.77;43.38
49949;BME280;35840;45.982;8.890;2023-08-06T08:17:00;97362.50;;;21.87;44.09
49949;BME280;35840;45.982;8.890;2023-08-06T08:19:26;97381.94;;;21.99;41.89
49949;BME280;35840;45.982;8.890;2023-08-06T08:21:54;97376.31;;;22.02;37.78
49949;BME280;35840;45.982;8.890;2023-08-06T08:24:22;97376.81;;;22.13;37.01
49949;BME280;35840;45.982;8.890;2023-08-06T08:26:51;97377.84;;;22.18;35.81
49949;BME280;35840;45.982;8.890;2023-08-06T08:29:22;97375.69;;;22.29;35.72
49949;BME280;35840;45.982;8.890;2023-08-06T08:31:49;97385.66;;;22.40;36.17
49949;BME280;35840;45.982;8.890;2023-08-06T08:34:17;97383.47;;;22.44;36.71
49949;BME280;35840;45.982;8.890;2023-08-06T08:36:44;97379.03;;;22.44;35.63
49949;BME280;35840;45.982;8.890;2023-08-06T08:39:14;97383.31;;;22.52;33.40
49949;BME280;35840;45.982;8.890;2023-08-06T08:41:41;97372.69;;;22.60;32.86
49949;BME280;35840;45.982;8.890;2023-08-06T08:44:09;97371.31;;;22.71;33.31
49949;BME280;35840;45.982;8.890;2023-08-06T08:46:40;97375.78;;;22.77;31.52
49949;BME280;35840;45.982;8.890;2023-08-06T08:49:07;97374.59;;;22.86;32.20
49949;BME280;35840;45.982;8.890;2023-08-06T08:51:34;97375.22;;;22.89;31.05
49949;BME280;35840;45.982;8.890;2023-08-06T08:54:07;97377.66;;;22.97;31.60
49949;BME280;35840;45.982;8.890;2023-08-06T08:56:35;97384.34;;;23.06;31.05
49949;BME280;35840;45.982;8.890;2023-08-06T08:59:02;97378.38;;;23.12;30.63
49949;BME280;35840;45.982;8.890;2023-08-06T09:01:29;97372.47;;;23.10;28.57
49949;BME280;35840;45.982;8.890;2023-08-06T09:03:56;97373.50;;;23.16;30.08
49949;BME280;35840;45.982;8.890;2023-08-06T09:06:25;97369.28;;;23.21;30.46
49949;BME280;35840;45.982;8.890;2023-08-06T09:09:06;97367.91;;;23.26;29.96
49949;BME280;35840;45.982;8.890;2023-08-06T09:11:37;97369.53;;;23.27;28.85
49949;BME280;35840;45.982;8.890;2023-08-06T09:14:07;97381.03;;;23.32;29.07
49949;BME280;35840;45.982;8.890;2023-08-06T09:16:35;97367.94;;;23.39;30.02
49949;BME280;35840;45.982;8.890;2023-08-06T09:19:13;97378.00;;;23.49;29.98
49949;BME280;35840;45.982;8.890;2023-08-06T09:21:40;97367.34;;;23.57;31.12
49949;BME280;35840;45.982;8.890;2023-08-06T09:24:11;97363.50;;;23.60;29.23
49949;BME280;35840;45.982;8.890;2023-08-06T09:26:39;97359.06;;;23.67;29.56
49949;BME280;35840;45.982;8.890;2023-08-06T09:29:08;97349.78;;;23.64;29.87
49949;BME280;35840;45.982;8.890;2023-08-06T09:31:47;97365.31;;;23.72;29.26
49949;BME280;35840;45.982;8.890;2023-08-06T09:36:46;97374.63;;;23.75;31.33
49949;BME280;35840;45.982;8.890;2023-08-06T09:39:14;97367.34;;;23.77;29.67
49949;BME280;35840;45.982;8.890;2023-08-06T09:41:42;97367.59;;;23.89;30.58
49949;BME280;35840;45.982;8.890;2023-08-06T09:44:15;97368.59;;;23.95;35.82
49949;BME280;35840;45.982;8.890;2023-08-06T09:46:48;97384.56;;;23.93;30.19
49949;BME280;35840;45.982;8.890;2023-08-06T09:49:17;97367.59;;;23.89;30.15
49949;BME280;35840;45.982;8.890;2023-08-06T09:51:48;97350.00;;;23.89;29.18
49949;BME280;35840;45.982;8.890;2023-08-06T09:54:19;97343.72;;;24.04;28.97
49949;BME280;35840;45.982;8.890;2023-08-06T09:56:54;97364.28;;;24.34;31.72
49949;BME280;35840;45.982;8.890;2023-08-06T09:59:22;97374.41;;;24.23;29.08
49949;BME280;35840;45.982;8.890;2023-08-06T10:01:50;97371.16;;;24.35;26.65
49949;BME280;35840;45.982;8.890;2023-08-06T10:04:19;97371.75;;;24.44;26.22
49949;BME280;35840;45.982;8.890;2023-08-06T10:06:50;97373.00;;;24.28;27.57
49949;BME280;35840;45.982;8.890;2023-08-06T10:09:18;97379.03;;;24.41;28.63
49949;BME280;35840;45.982;8.890;2023-08-06T10:11:51;97368.94;;;24.38;27.77
49949;BME280;35840;45.982;8.890;2023-08-06T10:14:24;97373.16;;;24.39;27.30
49949;BME280;35840;45.982;8.890;2023-08-06T10:16:53;97378.25;;;24.34;31.35
49949;BME280;35840;45.982;8.890;2023-08-06T10:19:25;97373.81;;;24.21;30.54
49949;BME280;35840;45.982;8.890;2023-08-06T10:22:11;97370.75;;;24.38;28.26
49949;BME280;35840;45.982;8.890;2023-08-06T10:24:57;97370.50;;;24.60;28.90
49949;BME280;35840;45.982;8.890;2023-08-06T10:27:41;97381.19;;;24.58;27.91
49949;BME280;35840;45.982;8.890;2023-08-06T10:33:03;97387.25;;;24.72;25.82
49949;BME280;35840;45.982;8.890;2023-08-06T10:38:13;97392.94;;;24.55;26.16
49949;BME280;35840;45.982;8.890;2023-08-06T10:40:48;97397.78;;;24.72;25.94
49949;BME280;35840;45.982;8.890;2023-08-06T10:43:31;97389.28;;;24.70;25.92
49949;BME280;35840;45.982;8.890;2023-08-06T10:46:01;97394.56;;;24.63;26.11
49949;BME280;35840;45.982;8.890;2023-08-06T10:48:39;97391.13;;;24.63;25.94
49949;BME280;35840;45.982;8.890;2023-08-06T10:51:11;97390.28;;;24.82;25.14
49949;BME280;35840;45.982;8.890;2023-08-06T10:53:41;97390.06;;;24.84;25.57
49949;BME280;35840;45.982;8.890;2023-08-06T10:56:16;97374.50;;;24.75;26.18
49949;BME280;35840;45.982;8.890;2023-08-06T10:58:44;97377.72;;;24.84;30.41
49949;BME280;35840;45.982;8.890;2023-08-06T11:01:11;97385.53;;;24.98;25.83
49949;BME280;35840;45.982;8.890;2023-08-06T11:03:39;97375.59;;;25.06;24.55
49949;BME280;35840;45.982;8.890;2023-08-06T11:06:09;97369.81;;;24.84;23.90
49949;BME280;35840;45.982;8.890;2023-08-06T11:08:40;97378.28;;;24.93;25.63
49949;BME280;35840;45.982;8.890;2023-08-06T11:11:08;97390.00;;;24.97;24.33
49949;BME280;35840;45.982;8.890;2023-08-06T11:13:37;97368.59;;;24.87;25.03
49949;BME280;35840;45.982;8.890;2023-08-06T11:16:07;97365.56;;;24.83;25.79
49949;BME280;35840;45.982;8.890;2023-08-06T11:18:35;97369.19;;;24.89;26.12
49949;BME280;35840;45.982;8.890;2023-08-06T11:21:02;97373.88;;;25.25;24.06
49949;BME280;35840;45.982;8.890;2023-08-06T11:23:29;97364.59;;;25.16;24.43
49949;BME280;35840;45.982;8.890;2023-08-06T11:25:57;97376.97;;;25.16;27.42
49949;BME280;35840;45.982;8.890;2023-08-06T11:28:24;97373.34;;;25.10;29.61
49949;BME280;35840;45.982;8.890;2023-08-06T11:30:52;97367.53;;;25.01;24.90
49949;BME280;35840;45.982;8.890;2023-08-06T11:33:22;97382.41;;;25.21;25.13
49949;BME280;35840;45.982;8.890;2023-08-06T11:35:52;97373.06;;;25.25;24.23
49949;BME280;35840;45.982;8.890;2023-08-06T11:38:20;97376.94;;;25.22;23.78
49949;BME280;35840;45.982;8.890;2023-08-06T11:40:47;97367.41;;;25.21;24.25
49949;BME280;35840;45.982;8.890;2023-08-06T11:43:14;97375.44;;;25.40;25.91
49949;BME280;35840;45.982;8.890;2023-08-06T11:45:42;97362.34;;;25.26;24.29
49949;BME280;35840;45.982;8.890;2023-08-06T11:48:09;97360.28;;;25.29;23.90
49949;BME280;35840;45.982;8.890;2023-08-06T11:50:37;97362.56;;;25.18;26.95
49949;BME280;35840;45.982;8.890;2023-08-06T11:53:07;97363.34;;;25.25;24.20
49949;BME280;35840;45.982;8.890;2023-08-06T11:55:33;97364.56;;;25.23;25.20
49949;BME280;35840;45.982;8.890;2023-08-06T11:58:05;97357.44;;;25.37;26.98
49949;BME280;35840;45.982;8.890;2023-08-06T12:00:32;97363.56;;;25.24;26.43
49949;BME280;35840;45.982;8.890;2023-08-06T12:02:59;97366.34;;;25.36;27.26
49949;BME280;35840;45.982;8.890;2023-08-06T12:05:30;97360.06;;;25.37;25.13
49949;BME280;35840;45.982;8.890;2023-08-06T12:07:59;97372.06;;;25.58;25.67
49949;BME280;35840;45.982;8.890;2023-08-06T12:10:27;97375.94;;;25.55;24.36
49949;BME280;35840;45.982;8.890;2023-08-06T12:12:55;97366.69;;;25.46;23.31
49949;BME280;35840;45.982;8.890;2023-08-06T12:15:22;97367.28;;;25.48;24.34
49949;BME280;35840;45.982;8.890;2023-08-06T12:17:49;97365.41;;;25.55;23.89
49949;BME280;35840;45.982;8.890;2023-08-06T12:20:16;97369.53;;;25.70;23.94
49949;BME280;35840;45.982;8.890;2023-08-06T12:22:43;97380.50;;;25.67;23.07
49949;BME280;35840;45.982;8.890;2023-08-06T12:25:11;97373.97;;;25.76;23.86
49949;BME280;35840;45.982;8.890;2023-08-06T12:27:42;97369.13;;;25.73;23.01
49949;BME280;35840;45.982;8.890;2023-08-06T12:30:10;97355.19;;;25.66;22.82
49949;BME280;35840;45.982;8.890;2023-08-06T12:32:38;97360.63;;;25.71;23.00
49949;BME280;35840;45.982;8.890;2023-08-06T12:35:05;97365.50;;;25.92;23.24
49949;BME280;35840;45.982;8.890;2023-08-06T12:37:34;97371.66;;;25.86;22.48
49949;BME280;35840;45.982;8.890;2023-08-06T12:40:02;97384.50;;;25.76;22.22
49949;BME280;35840;45.982;8.890;2023-08-06T12:42:50;97371.75;;;25.73;21.99
49949;BME280;35840;45.982;8.890;2023-08-06T12:45:17;97363.38;;;25.83;25.77
49949;BME280;35840;45.982;8.890;2023-08-06T12:47:48;97359.72;;;25.84;22.92
49949;BME280;35840;45.982;8.890;2023-08-06T12:50:16;97364.75;;;25.85;24.32
49949;BME280;35840;45.982;8.890;2023-08-06T12:52:44;97360.41;;;26.04;23.62
49949;BME280;35840;45.982;8.890;2023-08-06T12:55:11;97362.94;;;26.11;23.03
49949;BME280;35840;45.982;8.890;2023-08-06T12:57:38;97365.47;;;25.99;22.59
49949;BME280;35840;45.982;8.890;2023-08-06T13:00:22;97366.31;;;26.18;27.42
49949;BME280;35840;45.982;8.890;2023-08-06T13:02:49;97369.41;;;26.15;24.18
49949;BME280;35840;45.982;8.890;2023-08-06T13:05:16;97374.78;;;26.02;22.15
49949;BME280;35840;45.982;8.890;2023-08-06T13:07:43;97373.47;;;26.11;22.63
49949;BME280;35840;45.982;8.890;2023-08-06T13:10:10;97386.25;;;26.14;21.88
49949;BME280;35840;45.982;8.890;2023-08-06T13:12:36;97377.16;;;26.10;22.41
49949;BME280;35840;45.982;8.890;2023-08-06T13:15:04;97376.50;;;26.15;22.63
49949;BME280;35840;45.982;8.890;2023-08-06T13:17:30;97376.59;;;26.26;22.19
49949;BME280;35840;45.982;8.890;2023-08-06T13:19:57;97373.88;;;26.15;22.81
49949;BME280;35840;45.982;8.890;2023-08-06T13:22:24;97376.59;;;26.26;22.66
49949;BME280;35840;45.982;8.890;2023-08-06T13:24:51;97376.31;;;26.35;23.66